createdAt,value
2024-01-06T00:01:12.311Z,3.46
2024-01-06T00:03:39.052Z,3.59
2024-01-06T00:06:06.141Z,3.62
2024-01-06T00:08:32.664Z,3.68
2024-01-06T00:10:59.166Z,3.57
2024-01-06T00:13:25.716Z,3.34
2024-01-06T00:15:52.303Z,3.41
2024-01-06T00:18:20.091Z,3.46
2024-01-06T00:20:46.742Z,3.49
2024-01-06T00:23:13.198Z,3.53
2024-01-06T00:25:40.297Z,3.41
2024-01-06T00:28:06.779Z,3.46
2024-01-06T00:30:33.480Z,3.43
2024-01-06T00:33:00.027Z,3.32
2024-01-06T00:35:26.540Z,3.32
2024-01-06T00:37:53.434Z,3.39
2024-01-06T00:40:20.793Z,3.28
2024-01-06T00:42:47.360Z,3.22
2024-01-06T00:45:14.091Z,3.12
2024-01-06T00:47:40.692Z,3.13
2024-01-06T00:50:07.594Z,3.23
2024-01-06T00:52:34.060Z,3.21
2024-01-06T00:55:00.577Z,3.27
2024-01-06T00:57:27.094Z,3.16
2024-01-06T00:59:54.657Z,3.20
2024-01-06T01:02:21.138Z,3.21
2024-01-06T01:04:48.712Z,3.08
2024-01-06T01:07:15.300Z,3.07
2024-01-06T01:09:41.917Z,3.06
2024-01-06T01:12:08.480Z,3.11
2024-01-06T01:14:35.000Z,3.15
2024-01-06T01:17:01.480Z,3.19
2024-01-06T01:19:28.122Z,2.96
2024-01-06T01:21:56.747Z,3.06
2024-01-06T01:24:23.998Z,3.03
2024-01-06T01:26:51.095Z,3.18
2024-01-06T01:29:18.315Z,3.10
2024-01-06T01:31:44.859Z,3.14
2024-01-06T01:34:11.667Z,3.08
2024-01-06T01:36:38.312Z,3.11
2024-01-06T01:39:05.055Z,2.98
2024-01-06T01:41:32.525Z,3.06
2024-01-06T01:43:59.483Z,3.05
2024-01-06T01:46:30.427Z,3.13
2024-01-06T01:48:58.538Z,3.12
2024-01-06T01:51:30.610Z,3.24
2024-01-06T01:54:02.136Z,3.25
2024-01-06T01:56:30.285Z,3.13
2024-01-06T01:58:56.819Z,3.23
2024-01-06T02:01:23.457Z,3.29
2024-01-06T02:03:50.110Z,3.29
2024-01-06T02:06:16.764Z,3.24
2024-01-06T02:08:43.295Z,3.35
2024-01-06T02:11:09.813Z,3.34
2024-01-06T02:13:37.656Z,3.33
2024-01-06T02:16:05.856Z,3.06
2024-01-06T02:18:33.290Z,3.14
2024-01-06T02:21:02.353Z,3.20
2024-01-06T02:23:30.031Z,3.12
2024-01-06T02:25:57.712Z,3.26
2024-01-06T02:28:24.172Z,3.13
2024-01-06T02:30:51.397Z,3.01
2024-01-06T02:33:20.418Z,3.02
2024-01-06T02:35:47.742Z,3.29
2024-01-06T02:38:14.291Z,3.22
2024-01-06T02:40:40.840Z,3.33
2024-01-06T02:43:07.304Z,3.32
2024-01-06T02:45:33.943Z,3.27
2024-01-06T02:48:00.593Z,3.25
2024-01-06T02:50:27.130Z,3.22
2024-01-06T02:52:53.606Z,3.21
2024-01-06T02:55:20.151Z,3.17
2024-01-06T02:57:46.764Z,3.07
2024-01-06T03:00:14.093Z,3.06
2024-01-06T03:02:43.037Z,3.01
2024-01-06T03:05:11.446Z,3.07
2024-01-06T03:07:37.970Z,3.13
2024-01-06T03:10:04.767Z,3.14
2024-01-06T03:12:31.304Z,3.19
2024-01-06T03:14:57.821Z,3.20
2024-01-06T03:17:24.310Z,3.20
2024-01-06T03:19:51.081Z,3.23
2024-01-06T03:22:17.713Z,3.13
2024-01-06T03:24:44.300Z,3.17
2024-01-06T03:27:11.029Z,3.28
2024-01-06T03:29:37.820Z,3.20
2024-01-06T03:32:04.606Z,3.15
2024-01-06T03:34:31.231Z,3.13
2024-01-06T03:36:57.722Z,3.06
2024-01-06T03:39:24.227Z,3.19
2024-01-06T03:41:50.701Z,3.18
2024-01-06T03:44:17.226Z,3.00
2024-01-06T03:46:43.773Z,2.97
2024-01-06T03:49:10.356Z,2.78
2024-01-06T03:51:36.995Z,2.97
2024-01-06T03:54:03.680Z,3.05
2024-01-06T03:56:30.153Z,3.14
2024-01-06T03:58:56.636Z,3.09
2024-01-06T04:01:23.227Z,3.10
2024-01-06T04:03:49.883Z,3.00
2024-01-06T04:06:16.609Z,3.05
2024-01-06T04:08:43.574Z,3.02
2024-01-06T04:11:10.116Z,2.84
2024-01-06T04:13:36.621Z,3.05
2024-01-06T04:16:03.798Z,3.13
2024-01-06T04:18:30.438Z,2.99
2024-01-06T04:20:58.051Z,2.95
2024-01-06T04:23:26.338Z,3.18
2024-01-06T04:25:54.195Z,3.33
2024-01-06T04:28:20.867Z,3.30
2024-01-06T04:30:47.560Z,3.36
2024-01-06T04:33:14.369Z,3.39
2024-01-06T04:35:40.992Z,3.33
2024-01-06T04:38:07.451Z,3.26
2024-01-06T04:40:34.006Z,3.32
2024-01-06T04:43:00.487Z,3.35
2024-01-06T04:45:27.065Z,3.35
2024-01-06T04:47:53.933Z,3.34
2024-01-06T04:50:20.867Z,3.35
2024-01-06T04:52:47.380Z,3.32
2024-01-06T04:55:14.655Z,3.23
2024-01-06T04:57:41.174Z,3.08
2024-01-06T05:00:08.211Z,3.03
2024-01-06T05:02:35.316Z,2.99
2024-01-06T05:05:01.943Z,3.13
2024-01-06T05:07:28.481Z,3.20
2024-01-06T05:09:55.083Z,3.18
2024-01-06T05:12:21.650Z,3.25
2024-01-06T05:14:48.227Z,3.26
2024-01-06T05:17:14.775Z,3.05
2024-01-06T05:19:41.376Z,3.17
2024-01-06T05:22:08.085Z,3.19
2024-01-06T05:24:34.698Z,3.14
2024-01-06T05:27:01.225Z,3.20
2024-01-06T05:29:28.158Z,3.25
2024-01-06T05:31:55.792Z,3.30
2024-01-06T05:34:22.462Z,3.26
2024-01-06T05:36:50.067Z,3.15
2024-01-06T05:39:17.264Z,3.13
2024-01-06T05:41:43.799Z,3.15
2024-01-06T05:44:10.332Z,3.09
2024-01-06T05:46:36.912Z,3.02
2024-01-06T05:49:05.727Z,3.08
2024-01-06T05:51:32.478Z,3.14
2024-01-06T05:54:01.991Z,3.12
2024-01-06T05:56:28.903Z,3.07
2024-01-06T05:58:56.523Z,3.04
2024-01-06T06:01:23.996Z,2.92
2024-01-06T06:03:51.785Z,3.11
2024-01-06T06:06:18.768Z,3.07
2024-01-06T06:08:46.158Z,3.12
2024-01-06T06:11:12.679Z,3.17
2024-01-06T06:13:41.786Z,3.09
2024-01-06T06:16:10.272Z,2.94
2024-01-06T06:18:36.994Z,2.88
2024-01-06T06:21:05.049Z,2.91
2024-01-06T06:23:32.619Z,2.87
2024-01-06T06:26:00.438Z,2.95
2024-01-06T06:28:27.532Z,2.90
2024-01-06T06:30:54.314Z,2.94
2024-01-06T06:33:22.112Z,2.81
2024-01-06T06:35:48.630Z,2.75
2024-01-06T06:38:15.223Z,2.72
2024-01-06T06:40:41.701Z,2.67
2024-01-06T06:43:10.016Z,2.69
2024-01-06T06:45:36.552Z,2.62
2024-01-06T06:48:03.310Z,2.61
2024-01-06T06:50:30.131Z,2.71
2024-01-06T06:52:56.661Z,2.74
2024-01-06T06:55:23.125Z,2.70
2024-01-06T06:57:49.755Z,2.32
2024-01-06T07:00:17.299Z,2.39
2024-01-06T07:02:44.006Z,2.57
2024-01-06T07:05:10.748Z,2.54
2024-01-06T07:07:37.259Z,2.44
2024-01-06T07:10:06.760Z,2.56
2024-01-06T07:12:33.471Z,2.67
2024-01-06T07:15:00.066Z,2.52
2024-01-06T07:17:26.690Z,2.46
2024-01-06T07:19:53.973Z,2.58
2024-01-06T07:22:21.040Z,2.50
2024-01-06T07:24:47.649Z,2.51
2024-01-06T07:27:14.317Z,2.56
2024-01-06T07:29:40.896Z,2.62
2024-01-06T07:32:07.491Z,2.59
2024-01-06T07:34:34.541Z,2.54
2024-01-06T07:37:01.806Z,2.59
2024-01-06T07:39:28.443Z,2.63
2024-01-06T07:41:55.184Z,2.58
2024-01-06T07:44:25.724Z,2.38
2024-01-06T07:46:53.282Z,2.52
2024-01-06T07:49:20.329Z,2.67
2024-01-06T07:51:47.375Z,2.73
2024-01-06T07:54:13.966Z,2.61
2024-01-06T07:56:40.582Z,2.55
2024-01-06T07:59:07.963Z,2.59
2024-01-06T08:01:34.514Z,2.50
2024-01-06T08:04:01.341Z,2.50
2024-01-06T08:06:28.230Z,2.68
2024-01-06T08:08:55.877Z,2.78
2024-01-06T08:11:22.520Z,2.77
2024-01-06T08:13:49.091Z,2.92
2024-01-06T08:16:15.635Z,2.86
2024-01-06T08:18:42.373Z,2.94
2024-01-06T08:21:08.932Z,3.01
2024-01-06T08:23:35.766Z,2.96
2024-01-06T08:26:02.305Z,3.10
2024-01-06T08:28:28.889Z,2.97
2024-01-06T08:30:55.576Z,3.06
2024-01-06T08:33:22.293Z,3.16
2024-01-06T08:35:54.795Z,3.14
2024-01-06T08:38:23.593Z,3.12
2024-01-06T08:40:51.385Z,3.23
2024-01-06T08:43:19.276Z,3.21
2024-01-06T08:45:45.904Z,3.13
2024-01-06T08:48:14.790Z,3.24
2024-01-06T08:50:41.682Z,3.35
2024-01-06T08:53:08.226Z,3.31
2024-01-06T08:55:34.722Z,3.21
2024-01-06T08:58:01.278Z,3.29
2024-01-06T09:00:27.955Z,3.22
2024-01-06T09:02:54.687Z,3.36
2024-01-06T09:05:21.258Z,3.15
2024-01-06T09:07:54.563Z,3.41
2024-01-06T09:10:21.856Z,3.34
2024-01-06T09:12:49.065Z,3.37
2024-01-06T09:15:15.918Z,3.31
2024-01-06T09:17:42.831Z,3.35
2024-01-06T09:20:09.888Z,3.47
2024-01-06T09:22:36.581Z,3.78
2024-01-06T09:25:03.338Z,3.89
2024-01-06T09:27:29.845Z,3.69
2024-01-06T09:29:56.375Z,3.60
2024-01-06T09:32:24.298Z,3.74
2024-01-06T09:34:51.102Z,3.83
2024-01-06T09:37:17.781Z,4.08
2024-01-06T09:39:44.392Z,4.09
2024-01-06T09:42:12.714Z,4.28
2024-01-06T09:44:39.410Z,4.41
2024-01-06T09:47:07.154Z,4.34
2024-01-06T09:49:36.094Z,4.43
2024-01-06T09:52:07.613Z,4.53
2024-01-06T09:54:37.710Z,4.42
2024-01-06T09:57:07.211Z,4.52
2024-01-06T09:59:36.064Z,4.60
2024-01-06T10:02:04.906Z,4.66
2024-01-06T10:04:31.725Z,4.73
2024-01-06T10:06:58.302Z,4.77
2024-01-06T10:09:29.188Z,4.89
2024-01-06T10:11:57.710Z,4.89
2024-01-06T10:14:25.219Z,4.85
2024-01-06T10:16:53.664Z,4.91
2024-01-06T10:19:20.805Z,4.99
2024-01-06T10:21:47.650Z,5.07
2024-01-06T10:24:14.973Z,5.07
2024-01-06T10:26:41.598Z,5.18
2024-01-06T10:29:08.176Z,5.17
2024-01-06T10:31:35.942Z,5.17
2024-01-06T10:34:02.945Z,5.19
2024-01-06T10:36:29.974Z,5.05
2024-01-06T10:38:57.044Z,5.22
2024-01-06T10:41:25.118Z,5.19
2024-01-06T10:43:52.756Z,5.29
2024-01-06T10:46:24.001Z,5.21
2024-01-06T10:48:53.573Z,5.19
2024-01-06T10:51:20.659Z,5.25
2024-01-06T10:53:49.556Z,5.26
2024-01-06T10:56:17.019Z,5.39
2024-01-06T10:58:48.472Z,5.19
2024-01-06T11:01:19.388Z,5.27
2024-01-06T11:03:49.056Z,5.38
2024-01-06T11:06:16.052Z,5.22
2024-01-06T11:08:53.147Z,5.33
2024-01-06T11:11:20.839Z,5.38
2024-01-06T11:13:49.141Z,5.36
2024-01-06T11:16:38.499Z,5.37
2024-01-06T11:19:42.187Z,5.31
2024-01-06T11:22:21.939Z,5.32
2024-01-06T11:24:50.741Z,5.37
2024-01-06T11:27:24.056Z,5.44
2024-01-06T11:29:55.568Z,5.57
2024-01-06T11:32:36.236Z,5.60
2024-01-06T11:35:11.072Z,5.60
2024-01-06T11:37:40.558Z,5.63
2024-01-06T11:40:23.042Z,5.55
2024-01-06T11:43:02.035Z,5.68
2024-01-06T11:45:29.627Z,5.58
2024-01-06T11:48:00.265Z,5.64
2024-01-06T11:50:28.356Z,5.74
2024-01-06T11:52:55.929Z,5.65
2024-01-06T11:55:22.970Z,5.67
2024-01-06T11:57:51.040Z,5.69
2024-01-06T12:00:19.008Z,5.74
2024-01-06T12:02:46.288Z,5.73
2024-01-06T12:05:18.973Z,5.84
2024-01-06T12:08:05.795Z,5.76
2024-01-06T12:10:33.342Z,5.75
2024-01-06T12:13:03.098Z,5.84
2024-01-06T12:15:31.874Z,5.89
2024-01-06T12:17:58.934Z,5.93
2024-01-06T12:20:27.233Z,5.78
2024-01-06T12:22:54.536Z,5.84
2024-01-06T12:25:26.298Z,5.92
2024-01-06T12:27:54.700Z,5.85
2024-01-06T12:30:25.056Z,6.04
2024-01-06T12:32:53.793Z,5.94
2024-01-06T12:35:23.954Z,5.97
2024-01-06T12:37:50.719Z,6.00
2024-01-06T12:40:18.721Z,5.97
2024-01-06T12:42:46.507Z,6.00
2024-01-06T12:45:14.326Z,6.13
2024-01-06T12:47:43.052Z,6.07
2024-01-06T12:50:10.049Z,5.94
2024-01-06T12:52:36.895Z,5.88
2024-01-06T12:55:04.510Z,5.86
2024-01-06T12:57:31.359Z,5.89
2024-01-06T12:59:57.989Z,5.83
2024-01-06T13:02:24.520Z,5.90
2024-01-06T13:04:51.099Z,5.96
2024-01-06T13:07:17.779Z,5.99
2024-01-06T13:09:45.657Z,5.97
2024-01-06T13:12:12.258Z,5.89
2024-01-06T13:14:39.407Z,6.02
2024-01-06T13:17:07.161Z,6.10
2024-01-06T13:19:35.195Z,6.11
2024-01-06T13:22:02.236Z,5.99
2024-01-06T13:24:28.948Z,5.82
2024-01-06T13:26:55.578Z,6.00
2024-01-06T13:29:22.093Z,6.11
2024-01-06T13:31:49.356Z,6.11
2024-01-06T13:34:16.076Z,5.97
2024-01-06T13:36:42.882Z,6.06
2024-01-06T13:39:09.437Z,5.88
2024-01-06T13:41:36.588Z,5.99
2024-01-06T13:44:03.321Z,5.99
2024-01-06T13:46:35.794Z,5.95
2024-01-06T13:49:03.454Z,6.09
2024-01-06T13:51:30.095Z,5.91
2024-01-06T13:53:56.799Z,5.98
2024-01-06T13:56:23.314Z,6.12
2024-01-06T13:58:50.391Z,6.04
2024-01-06T14:01:16.983Z,6.10
2024-01-06T14:03:43.743Z,6.09
2024-01-06T14:06:10.499Z,6.01
2024-01-06T14:08:37.129Z,5.93
2024-01-06T14:11:03.964Z,5.93
2024-01-06T14:13:32.939Z,5.86
2024-01-06T14:16:01.037Z,5.78
2024-01-06T14:18:28.837Z,5.80
2024-01-06T14:20:56.723Z,5.85
2024-01-06T14:23:23.591Z,5.80
2024-01-06T14:25:50.247Z,5.86
2024-01-06T14:28:16.761Z,5.87
2024-01-06T14:30:43.463Z,5.85
2024-01-06T14:33:11.075Z,5.82
2024-01-06T14:35:37.585Z,5.73
2024-01-06T14:38:04.242Z,5.72
2024-01-06T14:40:31.753Z,5.70
2024-01-06T14:42:58.765Z,5.72
2024-01-06T14:45:25.537Z,5.62
2024-01-06T14:47:52.361Z,5.63
2024-01-06T14:50:20.050Z,5.67
2024-01-06T14:52:46.821Z,5.68
2024-01-06T14:55:14.383Z,5.56
2024-01-06T14:57:41.053Z,5.59
2024-01-06T15:00:11.591Z,5.50
2024-01-06T15:02:39.570Z,5.48
2024-01-06T15:05:06.967Z,5.43
2024-01-06T15:07:34.601Z,5.41
2024-01-06T15:10:05.662Z,5.34
2024-01-06T15:12:32.429Z,5.17
2024-01-06T15:15:01.880Z,5.19
2024-01-06T15:17:28.763Z,5.20
2024-01-06T15:19:56.457Z,5.12
2024-01-06T15:22:23.903Z,5.11
2024-01-06T15:24:57.492Z,5.01
2024-01-06T15:27:25.206Z,4.98
2024-01-06T15:29:51.800Z,4.93
2024-01-06T15:32:18.343Z,4.92
2024-01-06T15:34:45.263Z,4.87
2024-01-06T15:37:11.837Z,4.81
2024-01-06T15:39:38.434Z,4.80
2024-01-06T15:42:05.159Z,4.78
2024-01-06T15:44:34.385Z,4.70
2024-01-06T15:47:00.998Z,4.62
2024-01-06T15:49:29.253Z,4.58
2024-01-06T15:51:58.404Z,4.55
2024-01-06T15:54:25.149Z,4.47
2024-01-06T15:56:51.932Z,4.46
2024-01-06T15:59:18.458Z,4.43
2024-01-06T16:01:45.268Z,4.45
2024-01-06T16:04:12.170Z,4.36
2024-01-06T16:06:38.943Z,4.35
2024-01-06T16:09:06.964Z,4.36
2024-01-06T16:11:34.530Z,4.41
2024-01-06T16:14:01.058Z,4.39
2024-01-06T16:16:30.489Z,4.35
2024-01-06T16:18:57.339Z,4.36
2024-01-06T16:21:25.280Z,4.35
2024-01-06T16:23:53.431Z,4.44
2024-01-06T16:26:21.224Z,4.42
2024-01-06T16:28:47.729Z,4.38
2024-01-06T16:31:14.374Z,4.43
2024-01-06T16:33:41.147Z,4.30
2024-01-06T16:36:11.336Z,4.37
2024-01-06T16:38:37.899Z,4.28
2024-01-06T16:41:04.974Z,4.27
2024-01-06T16:43:33.586Z,4.34
2024-01-06T16:46:00.184Z,4.28
2024-01-06T16:48:27.070Z,4.26
2024-01-06T16:50:53.775Z,4.23
2024-01-06T16:53:20.304Z,4.29
2024-01-06T16:55:46.785Z,4.25
2024-01-06T16:58:13.409Z,4.31
2024-01-06T17:00:40.175Z,4.23
2024-01-06T17:03:06.765Z,4.24
2024-01-06T17:05:34.559Z,4.21
2024-01-06T17:08:01.099Z,4.24
2024-01-06T17:10:27.666Z,4.20
2024-01-06T17:12:55.527Z,3.97
2024-01-06T17:15:25.777Z,4.02
2024-01-06T17:17:52.397Z,4.08
2024-01-06T17:20:18.992Z,4.10
2024-01-06T17:22:46.001Z,4.21
2024-01-06T17:25:16.114Z,4.17
2024-01-06T17:27:46.295Z,4.18
2024-01-06T17:30:13.701Z,4.13
2024-01-06T17:32:42.274Z,4.12
2024-01-06T17:35:09.277Z,4.05
2024-01-06T17:37:35.942Z,4.03
2024-01-06T17:40:03.018Z,4.07
2024-01-06T17:42:29.649Z,4.07
2024-01-06T17:44:56.497Z,3.97
2024-01-06T17:47:23.037Z,4.12
2024-01-06T17:49:50.110Z,4.12
2024-01-06T17:52:16.845Z,4.11
2024-01-06T17:54:43.790Z,4.10
2024-01-06T17:57:17.231Z,3.98
2024-01-06T17:59:44.296Z,4.09
2024-01-06T18:02:10.793Z,4.08
2024-01-06T18:04:37.503Z,4.05
2024-01-06T18:07:04.381Z,4.12
2024-01-06T18:09:31.038Z,4.01
2024-01-06T18:11:57.572Z,4.05
2024-01-06T18:14:24.371Z,3.95
2024-01-06T18:16:50.961Z,3.93
2024-01-06T18:19:17.624Z,4.05
2024-01-06T18:21:44.797Z,3.98
2024-01-06T18:24:11.368Z,3.92
2024-01-06T18:26:37.963Z,4.03
2024-01-06T18:29:04.466Z,4.09
2024-01-06T18:31:31.178Z,4.01
2024-01-06T18:33:57.964Z,4.00
2024-01-06T18:36:25.000Z,3.88
2024-01-06T18:38:52.319Z,4.05
2024-01-06T18:41:18.787Z,4.06
2024-01-06T18:43:46.072Z,4.08
2024-01-06T18:46:12.738Z,4.06
2024-01-06T18:48:39.532Z,4.03
2024-01-06T18:51:06.215Z,4.09
2024-01-06T18:53:32.745Z,4.12
2024-01-06T18:55:59.339Z,4.10
2024-01-06T18:58:31.913Z,4.13
2024-01-06T19:00:58.571Z,4.15
2024-01-06T19:03:25.183Z,4.05
2024-01-06T19:05:51.752Z,4.17
2024-01-06T19:08:19.354Z,4.16
2024-01-06T19:10:45.973Z,4.13
2024-01-06T19:13:12.538Z,4.07
2024-01-06T19:15:42.985Z,4.11
2024-01-06T19:18:09.893Z,4.11
2024-01-06T19:20:36.524Z,4.15
2024-01-06T19:23:09.330Z,4.10
2024-01-06T19:25:37.287Z,4.13
2024-01-06T19:28:04.354Z,4.14
2024-01-06T19:30:31.076Z,4.11
2024-01-06T19:32:58.735Z,4.04
2024-01-06T19:35:25.268Z,4.15
2024-01-06T19:37:51.814Z,4.09
2024-01-06T19:40:19.606Z,4.06
2024-01-06T19:42:49.847Z,4.11
2024-01-06T19:45:16.509Z,4.14
2024-01-06T19:47:43.078Z,4.17
2024-01-06T19:50:10.092Z,4.22
2024-01-06T19:52:37.362Z,4.18
2024-01-06T19:55:05.181Z,4.13
2024-01-06T19:57:31.821Z,4.05
2024-01-06T19:59:59.514Z,4.12
2024-01-06T20:02:26.373Z,4.10
2024-01-06T20:04:52.943Z,4.07
2024-01-06T20:07:20.604Z,4.10
2024-01-06T20:09:48.256Z,4.07
2024-01-06T20:12:14.951Z,4.02
2024-01-06T20:14:42.667Z,3.98
2024-01-06T20:17:11.319Z,3.93
2024-01-06T20:19:38.083Z,3.92
2024-01-06T20:22:07.135Z,4.02
2024-01-06T20:24:34.137Z,3.99
2024-01-06T20:27:00.964Z,4.03
2024-01-06T20:29:27.476Z,3.90
2024-01-06T20:31:54.132Z,3.98
2024-01-06T20:34:20.977Z,4.09
2024-01-06T20:36:48.949Z,4.00
2024-01-06T20:39:15.455Z,4.04
2024-01-06T20:41:41.947Z,4.00
2024-01-06T20:44:10.296Z,3.93
2024-01-06T20:46:36.992Z,3.99
2024-01-06T20:49:04.348Z,3.89
2024-01-06T20:51:30.954Z,3.94
2024-01-06T20:53:57.533Z,3.96
2024-01-06T20:56:24.007Z,3.92
2024-01-06T20:58:50.558Z,3.92
2024-01-06T21:01:17.114Z,3.95
2024-01-06T21:03:44.249Z,3.87
2024-01-06T21:06:11.302Z,3.92
2024-01-06T21:08:38.884Z,3.96
2024-01-06T21:11:07.433Z,3.78
2024-01-06T21:13:33.954Z,3.80
2024-01-06T21:16:03.932Z,3.72
2024-01-06T21:18:30.834Z,3.74
2024-01-06T21:20:57.454Z,3.77
2024-01-06T21:23:35.550Z,3.85
2024-01-06T21:26:10.721Z,3.83
2024-01-06T21:28:38.927Z,3.78
2024-01-06T21:31:07.543Z,3.85
2024-01-06T21:33:34.278Z,3.88
2024-01-06T21:36:01.850Z,3.99
2024-01-06T21:38:28.316Z,3.89
2024-01-06T21:40:54.843Z,3.81
2024-01-06T21:43:21.380Z,3.82
2024-01-06T21:45:48.015Z,3.87
2024-01-06T21:48:14.888Z,3.70
2024-01-06T21:50:41.925Z,3.82
2024-01-06T21:53:10.119Z,3.86
2024-01-06T21:55:37.846Z,3.84
2024-01-06T21:58:04.720Z,3.77
2024-01-06T22:00:31.376Z,3.69
2024-01-06T22:02:58.541Z,3.73
2024-01-06T22:05:25.222Z,3.76
2024-01-06T22:07:51.741Z,3.74
2024-01-06T22:10:18.427Z,3.78
2024-01-06T22:12:45.001Z,3.81
2024-01-06T22:15:11.499Z,3.76
2024-01-06T22:17:38.093Z,3.69
2024-01-06T22:20:05.377Z,3.81
2024-01-06T22:22:31.939Z,3.85
2024-01-06T22:24:58.765Z,3.76
2024-01-06T22:27:26.450Z,3.78
2024-01-06T22:29:53.025Z,3.78
2024-01-06T22:32:19.494Z,3.72
2024-01-06T22:34:46.188Z,3.76
2024-01-06T22:37:12.967Z,3.63
2024-01-06T22:39:42.974Z,3.53
2024-01-06T22:42:09.547Z,3.47
2024-01-06T22:44:36.214Z,3.53
2024-01-06T22:47:02.958Z,3.47
2024-01-06T22:49:29.889Z,3.61
2024-01-06T22:51:56.752Z,3.54
2024-01-06T22:54:24.427Z,3.62
2024-01-06T22:56:50.957Z,3.62
2024-01-06T22:59:17.582Z,3.68
2024-01-06T23:01:44.199Z,3.58
2024-01-06T23:04:10.892Z,3.49
2024-01-06T23:06:38.022Z,3.57
2024-01-06T23:09:05.680Z,3.58
2024-01-06T23:11:32.564Z,3.57
2024-01-06T23:13:59.251Z,3.60
2024-01-06T23:16:25.897Z,3.61
2024-01-06T23:18:54.196Z,3.60
2024-01-06T23:21:21.481Z,3.54
2024-01-06T23:23:49.166Z,3.64
2024-01-06T23:26:16.143Z,3.66
2024-01-06T23:28:42.679Z,3.70
2024-01-06T23:31:09.489Z,3.72
2024-01-06T23:33:36.227Z,3.61
2024-01-06T23:36:04.084Z,3.71
2024-01-06T23:38:30.657Z,3.71
2024-01-06T23:40:57.134Z,3.70
2024-01-06T23:43:23.636Z,3.61
2024-01-06T23:45:50.238Z,3.66
2024-01-06T23:48:16.802Z,3.65
2024-01-06T23:50:43.469Z,3.65
2024-01-06T23:53:11.371Z,3.63
2024-01-06T23:55:37.915Z,3.58
2024-01-06T23:58:04.849Z,3.64
